This is the latest recevied weather packets stored in our database for station/object CE1RLP-34. If no packets are shown the sender has not sent any weather packets the latest 10 day(s).
| Time | Temp. | Humidity | Pressure | Rain* | Wind** | Luminosity | Snow |
|---|---|---|---|---|---|---|---|
| 1777574993 | 23.33° C | 6% | 1080.1 hPa | - | - | - | - |
| 1777574087 | 23.33° C | 4% | 1080.2 hPa | - | - | - | - |
| 1777570512 | 22.78° C | 4% | 1080.6 hPa | - | - | - | - |
| 1777568710 | 22.22° C | 4% | 1080.7 hPa | - | - | - | - |
| 1777567807 | 22.22° C | 4% | 1080.8 hPa | - | - | - | - |
| 1777566907 | 21.67° C | 4% | 1080.9 hPa | - | - | - | - |
| 1777566004 | 21.67° C | 4% | 1080.9 hPa | - | - | - | - |
| 1777565105 | 21.11° C | 4% | 1081.1 hPa | - | - | - | - |
| 1777564202 | 21.11° C | 5% | 1081.1 hPa | - | - | - | - |
| 1777563302 | 21.11° C | 5% | 1081.2 hPa | - | - | - | - |
| 1777562399 | 20.56° C | 5% | 1081.1 hPa | - | - | - | - |
| 1777561499 | 20° C | 5% | 1080.9 hPa | - | - | - | - |
| 1777560597 | 20° C | 5% | 1081.2 hPa | - | - | - | - |
| 1777559697 | 19.44° C | 5% | 1081.2 hPa | - | - | - | - |
| 1777558794 | 18.89° C | 5% | 1081.2 hPa | - | - | - | - |
| 1777557894 | 17.78° C | 5% | 1081 hPa | - | - | - | - |
| 1777556992 | 17.22° C | 5% | 1080.8 hPa | - | - | - | - |
| 1777556092 | 16.67° C | 5% | 1080.7 hPa | - | - | - | - |
| 1777555189 | 15.56° C | 6% | 1080.5 hPa | - | - | - | - |
| 1777554289 | 14.44° C | 6% | 1080.4 hPa | - | - | - | - |
| 1777553387 | 13.33° C | 7% | 1080.4 hPa | - | - | - | - |
| 1777552487 | 12.22° C | 8% | 1080.2 hPa | - | - | - | - |
| 1777551584 | 11.11° C | 10% | 1080.2 hPa | - | - | - | - |
| 1777549811 | 8.89° C | 12% | 1079.9 hPa | - | - | - | - |
| 1777548911 | 7.78° C | 14% | 1079.8 hPa | - | - | - | - |
* Rain since midnight (hover to see other rain measurements)
** Current wind speed in m/s (hover to see current wind gust speed)